sensor_id;sensor_type;location;lat;lon;timestamp;P1;durP1;ratioP1;P2;durP2;ratioP2
22843;SDS011;11588;51.178;4.852;2023-03-01T00:00:50;14.70;;;10.15;;
22843;SDS011;11588;51.178;4.852;2023-03-01T00:03:16;17.00;;;11.10;;
22843;SDS011;11588;51.178;4.852;2023-03-01T00:05:46;17.90;;;11.05;;
22843;SDS011;11588;51.178;4.852;2023-03-01T00:08:13;15.07;;;11.10;;
22843;SDS011;11588;51.178;4.852;2023-03-01T00:10:39;14.93;;;10.10;;
22843;SDS011;11588;51.178;4.852;2023-03-01T00:13:05;11.77;;;9.30;;
22843;SDS011;11588;51.178;4.852;2023-03-01T00:15:31;14.15;;;9.57;;
22843;SDS011;11588;51.178;4.852;2023-03-01T00:17:58;12.90;;;10.07;;
22843;SDS011;11588;51.178;4.852;2023-03-01T00:20:24;13.18;;;9.38;;
22843;SDS011;11588;51.178;4.852;2023-03-01T00:22:51;16.08;;;10.18;;
22843;SDS011;11588;51.178;4.852;2023-03-01T00:25:17;12.88;;;9.27;;
22843;SDS011;11588;51.178;4.852;2023-03-01T00:27:43;13.75;;;10.05;;
22843;SDS011;11588;51.178;4.852;2023-03-01T00:30:10;14.68;;;10.20;;
22843;SDS011;11588;51.178;4.852;2023-03-01T00:32:36;14.25;;;10.48;;
22843;SDS011;11588;51.178;4.852;2023-03-01T00:35:02;13.25;;;10.13;;
22843;SDS011;11588;51.178;4.852;2023-03-01T00:37:29;11.90;;;9.45;;
22843;SDS011;11588;51.178;4.852;2023-03-01T00:39:55;12.68;;;9.63;;
22843;SDS011;11588;51.178;4.852;2023-03-01T00:42:21;16.55;;;10.88;;
22843;SDS011;11588;51.178;4.852;2023-03-01T00:44:48;14.68;;;10.93;;
22843;SDS011;11588;51.178;4.852;2023-03-01T00:47:14;15.88;;;9.93;;
22843;SDS011;11588;51.178;4.852;2023-03-01T00:49:40;12.30;;;10.10;;
22843;SDS011;11588;51.178;4.852;2023-03-01T00:52:07;16.13;;;10.75;;
22843;SDS011;11588;51.178;4.852;2023-03-01T00:54:33;12.20;;;10.43;;
22843;SDS011;11588;51.178;4.852;2023-03-01T00:56:59;15.77;;;10.13;;
22843;SDS011;11588;51.178;4.852;2023-03-01T00:59:25;14.73;;;11.18;;
22843;SDS011;11588;51.178;4.852;2023-03-01T01:01:51;16.40;;;11.15;;
22843;SDS011;11588;51.178;4.852;2023-03-01T01:04:17;16.65;;;10.90;;
22843;SDS011;11588;51.178;4.852;2023-03-01T01:06:44;15.90;;;10.32;;
22843;SDS011;11588;51.178;4.852;2023-03-01T01:09:11;14.40;;;10.43;;
22843;SDS011;11588;51.178;4.852;2023-03-01T01:11:45;13.35;;;10.18;;
22843;SDS011;11588;51.178;4.852;2023-03-01T01:14:15;16.70;;;10.18;;
22843;SDS011;11588;51.178;4.852;2023-03-01T01:16:42;13.00;;;10.20;;
22843;SDS011;11588;51.178;4.852;2023-03-01T01:19:09;15.80;;;10.15;;
22843;SDS011;11588;51.178;4.852;2023-03-01T01:21:35;17.52;;;10.15;;
22843;SDS011;11588;51.178;4.852;2023-03-01T01:24:02;15.35;;;10.77;;
22843;SDS011;11588;51.178;4.852;2023-03-01T01:26:29;14.50;;;9.60;;
22843;SDS011;11588;51.178;4.852;2023-03-01T01:28:56;13.25;;;10.13;;
22843;SDS011;11588;51.178;4.852;2023-03-01T01:31:23;11.60;;;9.82;;
22843;SDS011;11588;51.178;4.852;2023-03-01T01:33:50;13.43;;;10.85;;
22843;SDS011;11588;51.178;4.852;2023-03-01T01:36:16;15.05;;;9.85;;
22843;SDS011;11588;51.178;4.852;2023-03-01T01:38:43;13.20;;;10.25;;
22843;SDS011;11588;51.178;4.852;2023-03-01T01:41:10;12.98;;;9.85;;
22843;SDS011;11588;51.178;4.852;2023-03-01T01:43:38;15.40;;;10.07;;
22843;SDS011;11588;51.178;4.852;2023-03-01T01:46:13;13.95;;;10.38;;
22843;SDS011;11588;51.178;4.852;2023-03-01T01:48:42;13.02;;;9.90;;
22843;SDS011;11588;51.178;4.852;2023-03-01T01:51:10;13.45;;;9.95;;
22843;SDS011;11588;51.178;4.852;2023-03-01T01:53:37;15.18;;;11.05;;
22843;SDS011;11588;51.178;4.852;2023-03-01T01:56:04;14.93;;;10.27;;
22843;SDS011;11588;51.178;4.852;2023-03-01T01:58:32;15.40;;;10.30;;
22843;SDS011;11588;51.178;4.852;2023-03-01T02:00:59;15.00;;;10.25;;
22843;SDS011;11588;51.178;4.852;2023-03-01T02:03:28;13.93;;;10.20;;
22843;SDS011;11588;51.178;4.852;2023-03-01T02:06:01;12.40;;;9.75;;
22843;SDS011;11588;51.178;4.852;2023-03-01T02:08:30;12.75;;;10.13;;
22843;SDS011;11588;51.178;4.852;2023-03-01T02:10:58;14.10;;;10.20;;
22843;SDS011;11588;51.178;4.852;2023-03-01T02:13:26;13.73;;;10.15;;
22843;SDS011;11588;51.178;4.852;2023-03-01T02:15:52;16.73;;;10.45;;
22843;SDS011;11588;51.178;4.852;2023-03-01T02:18:19;14.05;;;9.93;;
22843;SDS011;11588;51.178;4.852;2023-03-01T02:20:50;14.15;;;10.05;;
22843;SDS011;11588;51.178;4.852;2023-03-01T02:23:19;15.15;;;10.50;;
22843;SDS011;11588;51.178;4.852;2023-03-01T02:28:33;13.73;;;10.30;;
22843;SDS011;11588;51.178;4.852;2023-03-01T02:31:00;17.25;;;11.15;;
22843;SDS011;11588;51.178;4.852;2023-03-01T02:33:34;13.68;;;10.52;;
22843;SDS011;11588;51.178;4.852;2023-03-01T02:36:03;14.30;;;10.40;;
22843;SDS011;11588;51.178;4.852;2023-03-01T02:38:31;13.85;;;10.70;;
22843;SDS011;11588;51.178;4.852;2023-03-01T02:40:58;15.95;;;10.70;;
22843;SDS011;11588;51.178;4.852;2023-03-01T02:43:27;12.65;;;10.13;;
22843;SDS011;11588;51.178;4.852;2023-03-01T02:45:57;16.70;;;11.10;;
22843;SDS011;11588;51.178;4.852;2023-03-01T02:48:24;15.32;;;10.40;;
22843;SDS011;11588;51.178;4.852;2023-03-01T02:56:12;14.23;;;11.23;;
22843;SDS011;11588;51.178;4.852;2023-03-01T02:58:40;18.17;;;11.38;;
22843;SDS011;11588;51.178;4.852;2023-03-01T03:01:11;14.38;;;10.77;;
22843;SDS011;11588;51.178;4.852;2023-03-01T03:03:39;15.88;;;10.95;;
22843;SDS011;11588;51.178;4.852;2023-03-01T03:06:05;14.57;;;10.40;;
22843;SDS011;11588;51.178;4.852;2023-03-01T03:08:31;16.27;;;10.63;;
22843;SDS011;11588;51.178;4.852;2023-03-01T03:10:59;15.10;;;10.20;;
22843;SDS011;11588;51.178;4.852;2023-03-01T03:13:26;18.58;;;11.73;;
22843;SDS011;11588;51.178;4.852;2023-03-01T03:15:55;17.13;;;10.93;;
22843;SDS011;11588;51.178;4.852;2023-03-01T03:18:22;17.83;;;11.57;;
22843;SDS011;11588;51.178;4.852;2023-03-01T03:20:48;18.67;;;11.43;;
22843;SDS011;11588;51.178;4.852;2023-03-01T03:23:18;15.77;;;10.68;;
22843;SDS011;11588;51.178;4.852;2023-03-01T03:25:47;17.15;;;10.95;;
22843;SDS011;11588;51.178;4.852;2023-03-01T03:28:13;16.25;;;11.45;;
22843;SDS011;11588;51.178;4.852;2023-03-01T03:30:42;14.80;;;10.93;;
22843;SDS011;11588;51.178;4.852;2023-03-01T03:33:11;15.55;;;10.52;;
22843;SDS011;11588;51.178;4.852;2023-03-01T03:35:39;15.43;;;11.25;;
22843;SDS011;11588;51.178;4.852;2023-03-01T03:38:09;13.90;;;10.65;;
22843;SDS011;11588;51.178;4.852;2023-03-01T03:40:46;14.35;;;10.85;;
22843;SDS011;11588;51.178;4.852;2023-03-01T03:43:14;14.55;;;10.95;;
22843;SDS011;11588;51.178;4.852;2023-03-01T03:45:40;15.13;;;10.95;;
22843;SDS011;11588;51.178;4.852;2023-03-01T03:48:07;15.82;;;10.40;;
22843;SDS011;11588;51.178;4.852;2023-03-01T03:50:33;15.23;;;11.13;;
22843;SDS011;11588;51.178;4.852;2023-03-01T03:53:00;16.00;;;11.13;;
22843;SDS011;11588;51.178;4.852;2023-03-01T03:55:27;14.30;;;10.63;;
22843;SDS011;11588;51.178;4.852;2023-03-01T03:57:58;17.00;;;11.07;;
22843;SDS011;11588;51.178;4.852;2023-03-01T04:00:28;16.25;;;11.23;;
22843;SDS011;11588;51.178;4.852;2023-03-01T04:02:54;18.33;;;11.77;;
22843;SDS011;11588;51.178;4.852;2023-03-01T04:05:22;15.43;;;11.02;;
22843;SDS011;11588;51.178;4.852;2023-03-01T04:07:49;16.75;;;10.88;;
22843;SDS011;11588;51.178;4.852;2023-03-01T04:10:28;16.50;;;11.00;;
22843;SDS011;11588;51.178;4.852;2023-03-01T04:12:55;16.15;;;11.38;;
22843;SDS011;11588;51.178;4.852;2023-03-01T04:15:25;14.75;;;11.60;;
22843;SDS011;11588;51.178;4.852;2023-03-01T04:17:51;17.30;;;11.10;;
22843;SDS011;11588;51.178;4.852;2023-03-01T04:20:19;16.70;;;11.45;;
22843;SDS011;11588;51.178;4.852;2023-03-01T04:22:56;15.13;;;11.32;;
22843;SDS011;11588;51.178;4.852;2023-03-01T04:25:22;15.45;;;10.77;;
22843;SDS011;11588;51.178;4.852;2023-03-01T04:27:48;14.60;;;11.05;;
22843;SDS011;11588;51.178;4.852;2023-03-01T04:30:13;15.05;;;10.95;;
22843;SDS011;11588;51.178;4.852;2023-03-01T04:32:39;16.38;;;10.63;;
22843;SDS011;11588;51.178;4.852;2023-03-01T04:35:05;15.05;;;11.00;;
22843;SDS011;11588;51.178;4.852;2023-03-01T04:37:33;16.05;;;11.75;;
22843;SDS011;11588;51.178;4.852;2023-03-01T04:40:00;14.77;;;10.95;;
22843;SDS011;11588;51.178;4.852;2023-03-01T04:42:26;15.80;;;11.27;;
22843;SDS011;11588;51.178;4.852;2023-03-01T04:44:52;15.73;;;11.38;;
22843;SDS011;11588;51.178;4.852;2023-03-01T04:47:20;14.52;;;11.00;;
22843;SDS011;11588;51.178;4.852;2023-03-01T04:49:48;17.48;;;12.15;;
22843;SDS011;11588;51.178;4.852;2023-03-01T04:52:14;18.35;;;11.88;;
22843;SDS011;11588;51.178;4.852;2023-03-01T04:54:40;16.42;;;11.38;;
22843;SDS011;11588;51.178;4.852;2023-03-01T04:57:07;16.63;;;12.10;;
22843;SDS011;11588;51.178;4.852;2023-03-01T04:59:33;18.25;;;11.93;;
22843;SDS011;11588;51.178;4.852;2023-03-01T05:01:59;17.30;;;11.45;;
22843;SDS011;11588;51.178;4.852;2023-03-01T05:04:26;15.95;;;11.95;;
22843;SDS011;11588;51.178;4.852;2023-03-01T05:06:52;17.05;;;12.13;;
22843;SDS011;11588;51.178;4.852;2023-03-01T05:09:19;17.05;;;11.90;;
22843;SDS011;11588;51.178;4.852;2023-03-01T05:11:45;17.92;;;12.13;;
22843;SDS011;11588;51.178;4.852;2023-03-01T05:14:12;20.58;;;12.18;;
22843;SDS011;11588;51.178;4.852;2023-03-01T05:16:38;16.00;;;11.95;;
22843;SDS011;11588;51.178;4.852;2023-03-01T05:19:04;18.55;;;12.05;;
22843;SDS011;11588;51.178;4.852;2023-03-01T05:21:42;16.48;;;11.55;;
22843;SDS011;11588;51.178;4.852;2023-03-01T05:24:15;17.63;;;11.73;;
22843;SDS011;11588;51.178;4.852;2023-03-01T05:26:41;18.00;;;12.07;;
22843;SDS011;11588;51.178;4.852;2023-03-01T05:29:08;16.35;;;11.75;;
22843;SDS011;11588;51.178;4.852;2023-03-01T05:31:35;15.70;;;10.90;;
22843;SDS011;11588;51.178;4.852;2023-03-01T05:34:01;16.35;;;11.15;;
22843;SDS011;11588;51.178;4.852;2023-03-01T05:36:27;18.75;;;12.52;;
22843;SDS011;11588;51.178;4.852;2023-03-01T05:38:54;17.75;;;11.80;;
22843;SDS011;11588;51.178;4.852;2023-03-01T05:41:20;17.27;;;12.07;;
22843;SDS011;11588;51.178;4.852;2023-03-01T05:43:46;22.38;;;11.80;;
22843;SDS011;11588;51.178;4.852;2023-03-01T05:46:13;18.05;;;12.32;;
22843;SDS011;11588;51.178;4.852;2023-03-01T05:48:41;20.98;;;12.90;;
22843;SDS011;11588;51.178;4.852;2023-03-01T05:51:07;21.90;;;12.43;;
22843;SDS011;11588;51.178;4.852;2023-03-01T05:53:33;21.63;;;12.55;;
22843;SDS011;11588;51.178;4.852;2023-03-01T05:56:02;19.42;;;12.32;;
22843;SDS011;11588;51.178;4.852;2023-03-01T05:58:28;19.83;;;12.80;;
22843;SDS011;11588;51.178;4.852;2023-03-01T06:00:55;20.13;;;12.32;;
22843;SDS011;11588;51.178;4.852;2023-03-01T06:03:21;19.05;;;12.02;;
22843;SDS011;11588;51.178;4.852;2023-03-01T06:05:47;20.67;;;12.00;;
22843;SDS011;11588;51.178;4.852;2023-03-01T06:08:13;18.55;;;11.75;;
22843;SDS011;11588;51.178;4.852;2023-03-01T06:10:40;17.00;;;12.00;;
22843;SDS011;11588;51.178;4.852;2023-03-01T06:13:06;20.70;;;12.15;;
22843;SDS011;11588;51.178;4.852;2023-03-01T06:15:32;19.42;;;11.13;;
22843;SDS011;11588;51.178;4.852;2023-03-01T06:17:59;20.20;;;11.80;;
22843;SDS011;11588;51.178;4.852;2023-03-01T06:20:27;19.98;;;12.45;;
22843;SDS011;11588;51.178;4.852;2023-03-01T06:22:53;18.50;;;12.07;;
22843;SDS011;11588;51.178;4.852;2023-03-01T06:25:20;18.60;;;11.90;;
22843;SDS011;11588;51.178;4.852;2023-03-01T06:27:47;18.13;;;11.95;;
22843;SDS011;11588;51.178;4.852;2023-03-01T06:30:15;17.73;;;11.70;;
22843;SDS011;11588;51.178;4.852;2023-03-01T06:32:42;19.98;;;12.07;;
22843;SDS011;11588;51.178;4.852;2023-03-01T06:35:10;20.35;;;12.23;;
22843;SDS011;11588;51.178;4.852;2023-03-01T06:37:37;16.45;;;11.02;;
22843;SDS011;11588;51.178;4.852;2023-03-01T06:40:04;19.80;;;12.23;;
22843;SDS011;11588;51.178;4.852;2023-03-01T06:42:35;14.90;;;10.82;;
22843;SDS011;11588;51.178;4.852;2023-03-01T06:45:01;16.02;;;11.15;;
22843;SDS011;11588;51.178;4.852;2023-03-01T06:47:28;16.17;;;10.70;;
22843;SDS011;11588;51.178;4.852;2023-03-01T06:49:54;17.65;;;12.00;;
22843;SDS011;11588;51.178;4.852;2023-03-01T06:52:23;20.27;;;12.32;;
22843;SDS011;11588;51.178;4.852;2023-03-01T06:54:49;20.23;;;12.20;;
22843;SDS011;11588;51.178;4.852;2023-03-01T06:57:15;21.17;;;13.20;;
22843;SDS011;11588;51.178;4.852;2023-03-01T06:59:42;21.75;;;12.98;;
22843;SDS011;11588;51.178;4.852;2023-03-01T07:02:10;25.67;;;13.82;;
22843;SDS011;11588;51.178;4.852;2023-03-01T07:04:36;22.27;;;13.38;;
22843;SDS011;11588;51.178;4.852;2023-03-01T07:07:03;22.25;;;12.73;;
22843;SDS011;11588;51.178;4.852;2023-03-01T07:09:31;20.42;;;11.85;;
22843;SDS011;11588;51.178;4.852;2023-03-01T07:11:58;17.60;;;11.38;;
22843;SDS011;11588;51.178;4.852;2023-03-01T07:14:24;16.70;;;11.65;;
22843;SDS011;11588;51.178;4.852;2023-03-01T07:16:52;20.60;;;11.57;;
22843;SDS011;11588;51.178;4.852;2023-03-01T07:19:18;17.42;;;11.70;;
22843;SDS011;11588;51.178;4.852;2023-03-01T07:21:44;21.92;;;11.98;;
22843;SDS011;11588;51.178;4.852;2023-03-01T07:24:11;25.10;;;12.02;;
22843;SDS011;11588;51.178;4.852;2023-03-01T07:26:37;20.60;;;10.90;;
22843;SDS011;11588;51.178;4.852;2023-03-01T07:29:04;23.67;;;11.35;;
22843;SDS011;11588;51.178;4.852;2023-03-01T07:31:34;19.05;;;11.18;;
22843;SDS011;11588;51.178;4.852;2023-03-01T07:34:01;17.05;;;11.02;;
22843;SDS011;11588;51.178;4.852;2023-03-01T07:36:28;18.67;;;11.35;;
22843;SDS011;11588;51.178;4.852;2023-03-01T07:38:54;24.05;;;11.50;;
22843;SDS011;11588;51.178;4.852;2023-03-01T07:41:21;19.20;;;10.68;;
22843;SDS011;11588;51.178;4.852;2023-03-01T07:43:48;22.73;;;11.98;;
22843;SDS011;11588;51.178;4.852;2023-03-01T07:46:14;20.85;;;11.57;;
22843;SDS011;11588;51.178;4.852;2023-03-01T07:48:40;18.98;;;12.10;;
22843;SDS011;11588;51.178;4.852;2023-03-01T07:51:06;16.88;;;11.10;;
22843;SDS011;11588;51.178;4.852;2023-03-01T07:53:32;22.33;;;11.45;;
22843;SDS011;11588;51.178;4.852;2023-03-01T07:56:01;25.45;;;11.45;;
22843;SDS011;11588;51.178;4.852;2023-03-01T07:58:30;20.92;;;11.18;;
22843;SDS011;11588;51.178;4.852;2023-03-01T08:00:57;22.33;;;12.00;;
22843;SDS011;11588;51.178;4.852;2023-03-01T08:03:26;28.50;;;11.90;;
22843;SDS011;11588;51.178;4.852;2023-03-01T08:05:52;20.83;;;10.68;;
22843;SDS011;11588;51.178;4.852;2023-03-01T08:08:18;18.98;;;10.90;;
22843;SDS011;11588;51.178;4.852;2023-03-01T08:10:45;18.77;;;11.13;;
22843;SDS011;11588;51.178;4.852;2023-03-01T08:13:11;18.88;;;11.52;;
22843;SDS011;11588;51.178;4.852;2023-03-01T08:15:37;19.45;;;11.45;;
22843;SDS011;11588;51.178;4.852;2023-03-01T08:18:05;23.05;;;11.13;;
22843;SDS011;11588;51.178;4.852;2023-03-01T08:20:32;17.38;;;10.75;;
22843;SDS011;11588;51.178;4.852;2023-03-01T08:22:58;18.23;;;11.60;;
22843;SDS011;11588;51.178;4.852;2023-03-01T08:25:25;18.05;;;10.85;;
22843;SDS011;11588;51.178;4.852;2023-03-01T08:27:51;20.05;;;11.60;;
22843;SDS011;11588;51.178;4.852;2023-03-01T08:30:17;15.85;;;10.75;;
22843;SDS011;11588;51.178;4.852;2023-03-01T08:32:44;18.52;;;11.57;;
22843;SDS011;11588;51.178;4.852;2023-03-01T08:35:10;18.67;;;11.13;;
22843;SDS011;11588;51.178;4.852;2023-03-01T08:37:36;17.35;;;10.20;;
22843;SDS011;11588;51.178;4.852;2023-03-01T08:40:05;16.52;;;11.43;;
22843;SDS011;11588;51.178;4.852;2023-03-01T08:42:35;16.92;;;10.45;;
22843;SDS011;11588;51.178;4.852;2023-03-01T08:45:00;14.57;;;10.93;;
22843;SDS011;11588;51.178;4.852;2023-03-01T08:47:26;16.23;;;10.30;;
22843;SDS011;11588;51.178;4.852;2023-03-01T08:49:52;16.63;;;10.75;;
22843;SDS011;11588;51.178;4.852;2023-03-01T08:52:19;16.17;;;10.80;;
22843;SDS011;11588;51.178;4.852;2023-03-01T08:54:48;17.40;;;11.05;;
22843;SDS011;11588;51.178;4.852;2023-03-01T08:57:14;17.02;;;11.05;;
22843;SDS011;11588;51.178;4.852;2023-03-01T08:59:41;16.35;;;10.68;;
22843;SDS011;11588;51.178;4.852;2023-03-01T09:02:11;13.88;;;10.52;;
22843;SDS011;11588;51.178;4.852;2023-03-01T09:04:38;14.40;;;10.48;;
22843;SDS011;11588;51.178;4.852;2023-03-01T09:07:04;13.05;;;10.05;;
22843;SDS011;11588;51.178;4.852;2023-03-01T09:09:31;14.18;;;10.20;;
22843;SDS011;11588;51.178;4.852;2023-03-01T09:11:57;15.85;;;10.38;;
22843;SDS011;11588;51.178;4.852;2023-03-01T09:14:23;16.40;;;11.10;;
22843;SDS011;11588;51.178;4.852;2023-03-01T09:16:50;14.60;;;10.15;;
22843;SDS011;11588;51.178;4.852;2023-03-01T09:19:16;14.80;;;10.00;;
22843;SDS011;11588;51.178;4.852;2023-03-01T09:21:46;16.45;;;10.75;;
22843;SDS011;11588;51.178;4.852;2023-03-01T09:24:20;14.65;;;10.13;;
22843;SDS011;11588;51.178;4.852;2023-03-01T09:26:47;17.88;;;10.65;;
22843;SDS011;11588;51.178;4.852;2023-03-01T09:29:13;14.38;;;10.32;;
22843;SDS011;11588;51.178;4.852;2023-03-01T09:31:40;14.73;;;10.80;;
22843;SDS011;11588;51.178;4.852;2023-03-01T09:34:06;16.05;;;10.55;;
22843;SDS011;11588;51.178;4.852;2023-03-01T09:36:33;14.13;;;9.50;;
22843;SDS011;11588;51.178;4.852;2023-03-01T09:38:59;18.42;;;10.68;;
22843;SDS011;11588;51.178;4.852;2023-03-01T09:41:31;14.55;;;10.15;;
22843;SDS011;11588;51.178;4.852;2023-03-01T09:44:03;17.23;;;10.25;;
22843;SDS011;11588;51.178;4.852;2023-03-01T09:46:33;12.82;;;9.95;;
22843;SDS011;11588;51.178;4.852;2023-03-01T09:49:05;15.80;;;10.77;;
22843;SDS011;11588;51.178;4.852;2023-03-01T09:51:35;13.43;;;10.32;;
22843;SDS011;11588;51.178;4.852;2023-03-01T09:54:02;16.35;;;11.07;;
22843;SDS011;11588;51.178;4.852;2023-03-01T10:01:44;14.77;;;10.40;;
22843;SDS011;11588;51.178;4.852;2023-03-01T10:06:43;15.40;;;10.52;;
22843;SDS011;11588;51.178;4.852;2023-03-01T10:09:12;14.15;;;10.27;;
22843;SDS011;11588;51.178;4.852;2023-03-01T10:11:44;15.75;;;10.35;;
22843;SDS011;11588;51.178;4.852;2023-03-01T10:17:00;15.77;;;10.88;;
22843;SDS011;11588;51.178;4.852;2023-03-01T10:22:19;11.65;;;9.77;;
22843;SDS011;11588;51.178;4.852;2023-03-01T10:24:46;15.45;;;10.60;;
22843;SDS011;11588;51.178;4.852;2023-03-01T10:27:18;18.13;;;10.02;;
22843;SDS011;11588;51.178;4.852;2023-03-01T10:32:20;14.55;;;9.68;;
22843;SDS011;11588;51.178;4.852;2023-03-01T10:34:47;12.57;;;9.70;;
22843;SDS011;11588;51.178;4.852;2023-03-01T10:37:15;15.10;;;9.50;;
22843;SDS011;11588;51.178;4.852;2023-03-01T10:42:35;13.63;;;10.05;;
22843;SDS011;11588;51.178;4.852;2023-03-01T10:47:46;12.48;;;9.60;;
22843;SDS011;11588;51.178;4.852;2023-03-01T10:55:34;13.85;;;9.10;;
22843;SDS011;11588;51.178;4.852;2023-03-01T11:00:35;13.70;;;9.63;;
22843;SDS011;11588;51.178;4.852;2023-03-01T11:03:14;13.70;;;9.77;;
22843;SDS011;11588;51.178;4.852;2023-03-01T11:08:13;14.85;;;9.88;;
22843;SDS011;11588;51.178;4.852;2023-03-01T11:10:40;16.52;;;9.35;;
22843;SDS011;11588;51.178;4.852;2023-03-01T11:15:40;10.85;;;8.63;;
22843;SDS011;11588;51.178;4.852;2023-03-01T11:18:17;13.45;;;8.73;;
22843;SDS011;11588;51.178;4.852;2023-03-01T11:20:45;11.70;;;8.35;;
22843;SDS011;11588;51.178;4.852;2023-03-01T11:23:13;9.80;;;8.23;;
22843;SDS011;11588;51.178;4.852;2023-03-01T11:25:42;11.63;;;8.57;;
22843;SDS011;11588;51.178;4.852;2023-03-01T11:28:11;11.77;;;8.43;;
22843;SDS011;11588;51.178;4.852;2023-03-01T11:30:44;9.65;;;8.25;;
22843;SDS011;11588;51.178;4.852;2023-03-01T11:35:50;9.15;;;7.55;;
22843;SDS011;11588;51.178;4.852;2023-03-01T11:38:24;11.27;;;9.10;;
22843;SDS011;11588;51.178;4.852;2023-03-01T11:46:11;10.00;;;7.60;;
22843;SDS011;11588;51.178;4.852;2023-03-01T11:51:31;11.52;;;8.43;;
22843;SDS011;11588;51.178;4.852;2023-03-01T11:54:18;9.70;;;8.05;;
22843;SDS011;11588;51.178;4.852;2023-03-01T11:56:48;11.32;;;7.97;;
22843;SDS011;11588;51.178;4.852;2023-03-01T12:12:41;10.05;;;8.52;;
22843;SDS011;11588;51.178;4.852;2023-03-01T12:20:21;10.95;;;8.27;;
22843;SDS011;11588;51.178;4.852;2023-03-01T12:22:55;9.90;;;8.02;;
22843;SDS011;11588;51.178;4.852;2023-03-01T12:28:07;12.20;;;8.63;;
22843;SDS011;11588;51.178;4.852;2023-03-01T12:33:31;13.00;;;9.38;;
22843;SDS011;11588;51.178;4.852;2023-03-01T12:36:08;12.23;;;8.93;;
22843;SDS011;11588;51.178;4.852;2023-03-01T12:38:41;11.05;;;8.35;;
22843;SDS011;11588;51.178;4.852;2023-03-01T12:46:15;10.02;;;7.90;;
22843;SDS011;11588;51.178;4.852;2023-03-01T12:51:34;11.32;;;8.02;;
22843;SDS011;11588;51.178;4.852;2023-03-01T12:54:05;11.38;;;8.43;;
22843;SDS011;11588;51.178;4.852;2023-03-01T12:56:35;11.63;;;8.60;;
22843;SDS011;11588;51.178;4.852;2023-03-01T12:59:08;10.10;;;8.18;;
22843;SDS011;11588;51.178;4.852;2023-03-01T13:01:46;11.60;;;8.38;;
22843;SDS011;11588;51.178;4.852;2023-03-01T13:04:28;11.18;;;7.93;;
22843;SDS011;11588;51.178;4.852;2023-03-01T13:07:00;10.95;;;8.35;;
22843;SDS011;11588;51.178;4.852;2023-03-01T13:09:34;10.75;;;7.70;;
22843;SDS011;11588;51.178;4.852;2023-03-01T13:12:02;12.10;;;8.27;;
22843;SDS011;11588;51.178;4.852;2023-03-01T13:14:35;10.25;;;8.45;;
22843;SDS011;11588;51.178;4.852;2023-03-01T13:17:02;14.25;;;8.75;;
22843;SDS011;11588;51.178;4.852;2023-03-01T13:19:28;9.85;;;8.50;;
22843;SDS011;11588;51.178;4.852;2023-03-01T13:21:58;11.40;;;8.35;;
22843;SDS011;11588;51.178;4.852;2023-03-01T13:32:05;11.35;;;8.18;;
22843;SDS011;11588;51.178;4.852;2023-03-01T13:34:44;10.60;;;7.70;;
22843;SDS011;11588;51.178;4.852;2023-03-01T13:37:18;10.88;;;8.30;;
22843;SDS011;11588;51.178;4.852;2023-03-01T13:39:47;10.55;;;8.07;;
22843;SDS011;11588;51.178;4.852;2023-03-01T13:44:45;9.50;;;7.15;;
22843;SDS011;11588;51.178;4.852;2023-03-01T13:47:14;10.07;;;8.25;;
22843;SDS011;11588;51.178;4.852;2023-03-01T13:49:49;9.75;;;8.10;;
22843;SDS011;11588;51.178;4.852;2023-03-01T13:54:50;9.82;;;8.05;;
22843;SDS011;11588;51.178;4.852;2023-03-01T13:57:19;10.20;;;8.43;;
22843;SDS011;11588;51.178;4.852;2023-03-01T13:59:47;10.48;;;8.32;;
22843;SDS011;11588;51.178;4.852;2023-03-01T14:02:14;9.30;;;8.35;;
22843;SDS011;11588;51.178;4.852;2023-03-01T14:04:42;10.82;;;8.27;;
22843;SDS011;11588;51.178;4.852;2023-03-01T14:07:16;12.18;;;8.55;;
22843;SDS011;11588;51.178;4.852;2023-03-01T14:09:43;9.27;;;8.27;;
22843;SDS011;11588;51.178;4.852;2023-03-01T14:12:14;9.73;;;7.57;;
22843;SDS011;11588;51.178;4.852;2023-03-01T14:14:45;9.63;;;8.63;;
22843;SDS011;11588;51.178;4.852;2023-03-01T14:19:45;9.18;;;8.00;;
22843;SDS011;11588;51.178;4.852;2023-03-01T14:24:58;9.88;;;7.93;;
22843;SDS011;11588;51.178;4.852;2023-03-01T14:27:25;12.98;;;8.45;;
22843;SDS011;11588;51.178;4.852;2023-03-01T14:29:54;12.43;;;8.90;;
22843;SDS011;11588;51.178;4.852;2023-03-01T14:32:21;9.75;;;8.18;;
22843;SDS011;11588;51.178;4.852;2023-03-01T14:34:47;9.38;;;7.97;;
22843;SDS011;11588;51.178;4.852;2023-03-01T14:39:46;10.45;;;8.48;;
22843;SDS011;11588;51.178;4.852;2023-03-01T14:42:11;12.95;;;8.93;;
22843;SDS011;11588;51.178;4.852;2023-03-01T14:44:40;9.85;;;8.32;;
22843;SDS011;11588;51.178;4.852;2023-03-01T14:47:11;11.13;;;8.32;;
22843;SDS011;11588;51.178;4.852;2023-03-01T14:49:40;11.48;;;8.88;;
22843;SDS011;11588;51.178;4.852;2023-03-01T14:52:17;11.23;;;8.30;;
22843;SDS011;11588;51.178;4.852;2023-03-01T14:57:14;10.13;;;8.25;;
22843;SDS011;11588;51.178;4.852;2023-03-01T14:59:40;9.93;;;8.73;;
22843;SDS011;11588;51.178;4.852;2023-03-01T15:02:08;10.30;;;7.93;;
22843;SDS011;11588;51.178;4.852;2023-03-01T15:04:37;12.00;;;7.93;;
22843;SDS011;11588;51.178;4.852;2023-03-01T15:07:03;12.30;;;8.30;;
22843;SDS011;11588;51.178;4.852;2023-03-01T15:09:31;12.30;;;7.85;;
22843;SDS011;11588;51.178;4.852;2023-03-01T15:11:59;12.02;;;8.43;;
22843;SDS011;11588;51.178;4.852;2023-03-01T15:14:27;9.27;;;8.25;;
22843;SDS011;11588;51.178;4.852;2023-03-01T15:16:54;11.18;;;8.05;;
22843;SDS011;11588;51.178;4.852;2023-03-01T15:19:28;10.30;;;8.68;;
22843;SDS011;11588;51.178;4.852;2023-03-01T15:21:54;11.07;;;8.63;;
22843;SDS011;11588;51.178;4.852;2023-03-01T15:24:23;11.45;;;8.85;;
22843;SDS011;11588;51.178;4.852;2023-03-01T15:29:22;13.48;;;8.95;;
22843;SDS011;11588;51.178;4.852;2023-03-01T15:34:24;10.38;;;8.63;;
22843;SDS011;11588;51.178;4.852;2023-03-01T15:36:51;10.40;;;8.88;;
22843;SDS011;11588;51.178;4.852;2023-03-01T15:41:51;13.15;;;8.88;;
22843;SDS011;11588;51.178;4.852;2023-03-01T15:44:25;11.00;;;8.80;;
22843;SDS011;11588;51.178;4.852;2023-03-01T15:46:52;9.23;;;7.85;;
22843;SDS011;11588;51.178;4.852;2023-03-01T15:49:25;14.48;;;7.63;;
22843;SDS011;11588;51.178;4.852;2023-03-01T15:51:53;11.20;;;8.05;;
22843;SDS011;11588;51.178;4.852;2023-03-01T15:54:24;11.75;;;8.60;;
22843;SDS011;11588;51.178;4.852;2023-03-01T15:56:51;12.55;;;7.93;;
22843;SDS011;11588;51.178;4.852;2023-03-01T15:59:17;14.77;;;8.90;;
22843;SDS011;11588;51.178;4.852;2023-03-01T16:01:46;12.35;;;8.43;;
22843;SDS011;11588;51.178;4.852;2023-03-01T16:04:15;10.02;;;8.05;;
22843;SDS011;11588;51.178;4.852;2023-03-01T16:06:47;11.70;;;8.68;;
22843;SDS011;11588;51.178;4.852;2023-03-01T16:09:22;14.55;;;8.77;;
22843;SDS011;11588;51.178;4.852;2023-03-01T16:11:49;13.27;;;8.90;;
22843;SDS011;11588;51.178;4.852;2023-03-01T16:14:15;10.85;;;8.73;;
22843;SDS011;11588;51.178;4.852;2023-03-01T16:16:43;14.07;;;9.10;;
22843;SDS011;11588;51.178;4.852;2023-03-01T16:19:10;10.00;;;7.85;;
22843;SDS011;11588;51.178;4.852;2023-03-01T16:21:35;12.90;;;9.13;;
22843;SDS011;11588;51.178;4.852;2023-03-01T16:24:02;15.35;;;9.05;;
22843;SDS011;11588;51.178;4.852;2023-03-01T16:26:29;13.50;;;8.55;;